Time;durP1;ratioP1;P1;durP2;ratioP2;P2;SDS_P1;SDS_P2;PMS_P1;PMS_P2;Temp;Humidity;BMP_temperature;BMP_pressure;BME280_temperature;BME280_humidity;BME280_pressure;Samples;Min_cycle;Max_cycle;Signal;HPM_P1;HPM_P2
2023/07/05 00:00:12;;;;;;;7.93;4.35;;;;;;;15.53;100.00;100394.75;5031039;28;20030;-67
2023/07/05 00:02:37;;;;;;;9.70;4.97;;;;;;;15.53;100.00;100394.75;5032486;28;20037;-67
2023/07/05 00:05:03;;;;;;;12.60;4.70;;;;;;;15.56;100.00;100392.44;5050051;28;20040;-67
2023/07/05 00:07:29;;;;;;;9.68;4.85;;;;;;;15.53;100.00;100378.63;5032289;28;20118;-67
2023/07/05 00:09:54;;;;;;;11.82;4.25;;;;;;;15.56;100.00;100383.53;5050068;28;20175;-67
2023/07/05 00:12:20;;;;;;;8.85;3.95;;;;;;;15.53;100.00;100368.69;5049905;28;20044;-68
2023/07/05 00:14:45;;;;;;;7.47;3.70;;;;;;;15.52;100.00;100348.25;5049859;28;20082;-68
2023/07/05 00:17:10;;;;;;;6.32;3.35;;;;;;;15.51;100.00;100343.94;5049902;28;20059;-68
2023/07/05 00:19:36;;;;;;;6.47;3.42;;;;;;;15.54;100.00;100330.03;5049828;28;20502;-68
2023/07/05 00:22:02;;;;;;;7.50;4.07;;;;;;;15.53;100.00;100311.44;5049842;28;20024;-67
2023/07/05 00:24:27;;;;;;;8.93;3.10;;;;;;;15.49;100.00;100319.19;5049930;28;20108;-68
2023/07/05 00:26:53;;;;;;;7.72;3.92;;;;;;;15.51;100.00;100314.38;5049727;28;20124;-67
2023/07/05 00:29:18;;;;;;;9.50;3.75;;;;;;;15.50;100.00;100309.25;5049882;28;20044;-67
2023/07/05 00:31:43;;;;;;;5.88;3.13;;;;;;;15.47;100.00;100286.34;5050159;28;20045;-68
2023/07/05 00:34:09;;;;;;;6.03;2.63;;;;;;;15.42;100.00;100280.09;5049533;28;20074;-67
2023/07/05 00:36:34;;;;;;;7.18;3.15;;;;;;;15.40;100.00;100269.56;5049321;28;20139;-68
2023/07/05 00:38:59;;;;;;;7.75;3.13;;;;;;;15.38;100.00;100270.88;5031554;28;20033;-67
2023/07/05 00:41:25;;;;;;;8.52;2.85;;;;;;;15.36;100.00;100259.56;5049459;28;20119;-68
2023/07/05 00:43:50;;;;;;;5.03;2.80;;;;;;;15.36;100.00;100254.19;5049403;28;20120;-68
2023/07/05 00:46:26;;;;;;;6.88;3.45;;;;;;;15.38;100.00;100247.53;5049140;28;20056;-68
2023/07/05 00:48:59;;;;;;;6.72;2.65;;;;;;;15.36;100.00;100225.44;5049116;28;20545;-68
2023/07/05 00:51:40;;;;;;;6.97;2.55;;;;;;;15.36;100.00;100206.63;5049329;28;20021;-67
2023/07/05 00:54:06;;;;;;;6.60;4.03;;;;;;;15.30;100.00;100197.69;5049384;28;20078;-68
2023/07/05 00:56:40;;;;;;;6.22;3.20;;;;;;;15.32;100.00;100226.97;5049052;28;20374;-68
2023/07/05 00:59:10;;;;;;;8.20;3.00;;;;;;;15.32;100.00;100233.16;5031409;28;20082;-68
2023/07/05 01:01:36;;;;;;;7.00;3.70;;;;;;;15.30;100.00;100223.72;5031372;28;20119;-68
2023/07/05 01:04:04;;;;;;;12.45;3.30;;;;;;;15.31;100.00;100228.84;5049012;28;20116;-68
2023/07/05 01:06:29;;;;;;;8.90;3.20;;;;;;;15.30;100.00;100219.19;5049010;28;20033;-68
2023/07/05 01:08:56;;;;;;;6.55;2.92;;;;;;;15.31;100.00;100210.03;5049058;28;20491;-68
2023/07/05 01:11:43;;;;;;;9.80;3.85;;;;;;;15.26;100.00;100204.59;5048927;28;20500;-68
2023/07/05 01:14:35;;;;;;;5.10;3.08;;;;;;;15.33;100.00;100212.50;5029839;28;20025;-68
2023/07/05 01:17:24;;;;;;;5.97;2.75;;;;;;;15.30;100.00;100205.75;5029943;28;20021;-68
2023/07/05 01:20:24;;;;;;;5.82;3.33;;;;;;;15.35;100.00;100205.00;5029588;28;20026;-68
2023/07/05 01:23:29;;;;;;;5.43;2.70;;;;;;;15.37;100.00;100202.06;5029592;28;20431;-68
2023/07/05 01:26:04;;;;;;;7.60;3.22;;;;;;;15.41;100.00;100203.22;5029297;28;20473;-68
2023/07/05 01:28:55;;;;;;;6.07;3.33;;;;;;;15.44;100.00;100191.97;5029647;28;20475;-68
2023/07/05 01:31:42;;;;;;;5.03;2.85;;;;;;;15.46;100.00;100190.69;5029721;28;20029;-68
2023/07/05 01:34:20;;;;;;;5.00;2.53;;;;;;;15.48;100.00;100193.94;5029535;28;20029;-68
2023/07/05 01:36:46;;;;;;;8.82;3.03;;;;;;;15.51;100.00;100193.44;5029791;28;20048;-68
2023/07/05 01:39:11;;;;;;;5.78;2.65;;;;;;;15.54;100.00;100197.50;5029561;28;20029;-68
2023/07/05 01:41:37;;;;;;;4.75;3.30;;;;;;;15.57;100.00;100189.75;5029560;28;20056;-69
2023/07/05 01:44:03;;;;;;;6.43;2.83;;;;;;;15.57;100.00;100186.28;5029327;28;20043;-68
2023/07/05 01:46:41;;;;;;;6.63;3.65;;;;;;;15.59;100.00;100189.53;5029380;28;20099;-68
2023/07/05 01:49:13;;;;;;;5.03;2.47;;;;;;;15.64;100.00;100194.97;5029489;28;20032;-68
2023/07/05 01:52:07;;;;;;;7.15;3.05;;;;;;;15.63;100.00;100193.34;5029862;28;20052;-68
2023/07/05 01:54:50;;;;;;;4.07;2.35;;;;;;;15.59;100.00;100192.22;5029432;28;20481;-68
2023/07/05 01:57:23;;;;;;;4.97;2.25;;;;;;;15.62;100.00;100193.59;5029290;28;20034;-68
2023/07/05 02:00:07;;;;;;;5.10;2.50;;;;;;;15.60;100.00;100191.16;5029161;28;20028;-68
2023/07/05 02:02:38;;;;;;;7.28;2.35;;;;;;;15.60;100.00;100198.41;5011457;28;20033;-68
2023/07/05 02:05:07;;;;;;;12.07;3.60;;;;;;;15.61;100.00;100191.94;5029385;28;20923;-68
2023/07/05 02:07:33;;;;;;;6.22;2.78;;;;;;;15.58;100.00;100198.63;5029097;28;20037;-68
2023/07/05 02:09:59;;;;;;;3.95;2.38;;;;;;;15.60;100.00;100201.91;5029247;28;20060;-67
2023/07/05 02:12:25;;;;;;;5.90;2.42;;;;;;;15.57;100.00;100219.34;5029122;28;20036;-68
2023/07/05 02:14:51;;;;;;;6.80;2.50;;;;;;;15.56;100.00;100219.56;5029159;28;20036;-68
2023/07/05 02:17:18;;;;;;;6.40;2.70;;;;;;;15.55;100.00;100217.94;5028950;28;20029;-68
2023/07/05 02:19:44;;;;;;;4.20;2.88;;;;;;;15.52;100.00;100218.44;5011300;28;20045;-68
2023/07/05 02:22:10;;;;;;;4.93;1.80;;;;;;;15.47;100.00;100224.53;5028883;28;20038;-68
2023/07/05 02:24:35;;;;;;;4.70;2.78;;;;;;;15.49;100.00;100235.06;5028656;28;20100;-69
2023/07/05 02:27:00;;;;;;;3.85;2.50;;;;;;;15.45;100.00;100239.28;5028988;28;20077;-68
2023/07/05 02:29:26;;;;;;;3.55;2.65;;;;;;;15.40;100.00;100261.50;5028963;28;20030;-69
2023/07/05 02:31:51;;;;;;;6.15;2.50;;;;;;;15.34;100.00;100276.72;5011407;28;20039;-69
2023/07/05 02:34:17;;;;;;;2.20;1.42;;;;;;;15.23;100.00;100282.97;5029086;28;20060;-69
2023/07/05 02:36:42;;;;;;;4.32;1.48;;;;;;;15.09;100.00;100287.84;5029731;28;20045;-69
2023/07/05 02:39:07;;;;;;;4.68;1.73;;;;;;;14.96;100.00;100289.97;5032754;28;20393;-69
2023/07/05 02:41:33;;;;;;;4.45;2.15;;;;;;;14.81;100.00;100302.06;5032771;28;20033;-69
2023/07/05 02:43:58;;;;;;;5.28;2.40;;;;;;;14.68;100.00;100307.72;5032664;28;20061;-68
2023/07/05 02:46:25;;;;;;;6.07;2.53;;;;;;;14.56;100.00;100305.03;5032381;28;20091;-69
2023/07/05 02:48:52;;;;;;;3.08;2.03;;;;;;;14.52;100.00;100314.59;5032894;28;20415;-69
2023/07/05 02:51:18;;;;;;;3.60;2.08;;;;;;;14.46;100.00;100307.47;5032661;28;20120;-69
2023/07/05 02:53:43;;;;;;;9.80;2.25;;;;;;;14.43;100.00;100311.44;5032384;28;20120;-70
2023/07/05 02:56:09;;;;;;;6.30;2.17;;;;;;;14.42;100.00;100314.38;5032401;28;20087;-68
2023/07/05 02:58:34;;;;;;;3.65;2.10;;;;;;;14.35;100.00;100305.63;5032649;28;20029;-69
2023/07/05 03:00:59;;;;;;;7.47;1.90;;;;;;;14.21;100.00;100305.06;5032466;28;20033;-69
2023/07/05 03:03:26;;;;;;;5.32;2.47;;;;;;;14.18;100.00;100310.91;5032364;28;20037;-69
2023/07/05 03:05:55;;;;;;;4.55;2.47;;;;;;;14.11;100.00;100311.00;5032243;28;20060;-69
2023/07/05 03:08:21;;;;;;;3.55;2.67;;;;;;;14.02;100.00;100310.53;5032208;28;20060;-69
2023/07/05 03:10:46;;;;;;;3.97;2.17;;;;;;;14.02;100.00;100307.84;5014580;28;20063;-69
2023/07/05 03:13:11;;;;;;;5.47;2.35;;;;;;;13.97;100.00;100306.94;5014182;28;20057;-69
2023/07/05 03:15:37;;;;;;;9.10;2.45;;;;;;;13.93;100.00;100311.09;5032302;28;20244;-69
2023/07/05 03:18:02;;;;;;;9.00;2.95;;;;;;;13.90;100.00;100308.91;5032202;28;20080;-69
2023/07/05 03:20:28;;;;;;;4.00;2.60;;;;;;;13.84;100.00;100307.16;5032048;28;20390;-70
2023/07/05 03:22:53;;;;;;;6.30;2.20;;;;;;;13.82;100.00;100307.38;5031939;28;20025;-69
2023/07/05 03:25:19;;;;;;;3.13;1.90;;;;;;;13.81;100.00;100306.56;5014217;28;20103;-69
2023/07/05 03:27:44;;;;;;;7.88;3.72;;;;;;;13.78;100.00;100317.75;5031975;28;20677;-70
2023/07/05 03:30:10;;;;;;;3.85;2.47;;;;;;;13.76;100.00;100322.50;5031729;28;20041;-69
2023/07/05 03:32:36;;;;;;;6.75;2.63;;;;;;;13.74;100.00;100313.88;5014070;28;20033;-70
2023/07/05 03:35:01;;;;;;;7.75;4.30;;;;;;;13.73;100.00;100312.25;5031826;28;20152;-69
2023/07/05 03:37:28;;;;;;;6.72;2.53;;;;;;;13.74;100.00;100321.13;5031547;28;20148;-69
2023/07/05 03:39:54;;;;;;;5.05;3.00;;;;;;;13.74;100.00;100310.38;5031547;28;20029;-69
2023/07/05 03:42:19;;;;;;;8.75;3.80;;;;;;;13.69;100.00;100313.75;5031448;28;20361;-69
2023/07/05 03:44:45;;;;;;;7.60;3.50;;;;;;;13.70;100.00;100312.72;5031637;28;20036;-70
2023/07/05 03:47:10;;;;;;;4.97;2.67;;;;;;;13.72;100.00;100320.53;5030875;28;20057;-69
2023/07/05 03:49:35;;;;;;;7.88;3.03;;;;;;;13.74;100.00;100316.56;5031510;28;20123;-69
2023/07/05 03:52:01;;;;;;;5.53;3.20;;;;;;;13.78;100.00;100317.75;5031240;28;20060;-69
2023/07/05 03:54:28;;;;;;;6.22;2.67;;;;;;;13.80;100.00;100318.31;5031233;28;20065;-69
2023/07/05 03:56:53;;;;;;;6.90;2.92;;;;;;;13.76;100.00;100316.34;5031271;28;20034;-69
2023/07/05 03:59:19;;;;;;;7.20;2.70;;;;;;;13.80;100.00;100318.31;5031198;28;20079;-69
2023/07/05 04:01:44;;;;;;;6.57;3.10;;;;;;;13.80;100.00;100320.19;5031228;28;20034;-69
2023/07/05 04:04:09;;;;;;;6.38;3.08;;;;;;;13.79;100.00;100319.38;5031167;28;20025;-69
2023/07/05 04:06:35;;;;;;;7.25;3.28;;;;;;;13.75;100.00;100320.91;5030901;28;20053;-69
2023/07/05 04:09:00;;;;;;;6.22;2.80;;;;;;;13.73;100.00;100296.19;5030943;28;20056;-69
2023/07/05 04:11:26;;;;;;;6.07;2.75;;;;;;;13.75;100.00;100307.50;5031020;28;20061;-69
2023/07/05 04:13:53;;;;;;;7.82;3.47;;;;;;;13.77;100.00;100308.06;5031114;28;20119;-68
2023/07/05 04:16:21;;;;;;;5.57;3.15;;;;;;;13.79;100.00;100308.66;5030937;28;20400;-68
2023/07/05 04:18:50;;;;;;;6.07;3.42;;;;;;;13.82;100.00;100304.69;5030854;28;20025;-68
2023/07/05 04:21:16;;;;;;;5.60;2.90;;;;;;;13.82;100.00;100313.53;5030809;28;20026;-68
2023/07/05 04:23:42;;;;;;;6.45;2.47;;;;;;;13.86;100.00;100319.28;5030521;28;20029;-69
2023/07/05 04:26:14;;;;;;;8.13;3.53;;;;;;;13.88;100.00;100325.19;5030762;28;20402;-69
2023/07/05 04:28:41;;;;;;;8.25;4.15;;;;;;;13.80;100.00;100317.50;5030733;28;20032;-69
2023/07/05 04:31:10;;;;;;;5.22;3.08;;;;;;;13.86;100.00;100321.97;5030716;28;20033;-68
2023/07/05 04:33:36;;;;;;;7.47;2.83;;;;;;;13.84;100.00;100318.69;5030503;28;20096;-68
2023/07/05 04:36:02;;;;;;;9.10;3.22;;;;;;;13.87;100.00;100318.22;5030493;28;20055;-68
2023/07/05 04:38:28;;;;;;;9.60;3.65;;;;;;;13.88;100.00;100322.53;5030438;28;20064;-69
2023/07/05 04:40:56;;;;;;;5.75;2.67;;;;;;;13.91;100.00;100322.06;5030528;28;20033;-69
2023/07/05 04:43:22;;;;;;;5.70;3.10;;;;;;;13.96;100.00;100334.75;5030214;28;20519;-68
2023/07/05 04:45:51;;;;;;;6.45;2.65;;;;;;;13.96;100.00;100324.88;5030480;28;20038;-68
2023/07/05 04:48:16;;;;;;;10.90;3.88;;;;;;;14.00;100.00;100319.88;5030319;28;20076;-68
2023/07/05 04:50:42;;;;;;;6.20;2.92;;;;;;;14.01;100.00;100324.16;5030005;28;20602;-68
2023/07/05 04:53:07;;;;;;;4.95;2.45;;;;;;;14.05;100.00;100329.91;5037620;28;20112;-68
2023/07/05 04:55:33;;;;;;;7.40;2.67;;;;;;;14.02;100.00;100332.00;5049182;28;20063;-68
2023/07/05 04:57:58;;;;;;;6.55;2.63;;;;;;;13.99;100.00;100321.72;5049261;28;20506;-68
2023/07/05 05:00:24;;;;;;;7.32;3.17;;;;;;;14.02;100.00;100326.63;5048177;28;20557;-68
2023/07/05 05:02:50;;;;;;;7.72;3.38;;;;;;;13.98;100.00;100312.03;5049242;28;20037;-69
2023/07/05 05:05:15;;;;;;;10.15;3.92;;;;;;;14.10;100.00;100328.16;5049056;28;20057;-69
2023/07/05 05:07:41;;;;;;;5.55;2.83;;;;;;;14.09;100.00;100320.31;5049346;28;20091;-68
2023/07/05 05:10:07;;;;;;;5.18;2.85;;;;;;;14.13;100.00;100318.81;5014953;28;20104;-68
2023/07/05 05:12:32;;;;;;;5.50;2.85;;;;;;;14.10;100.00;100319.28;5029827;28;20034;-68
2023/07/05 05:14:57;;;;;;;6.50;3.30;;;;;;;14.13;100.00;100326.88;5030125;28;20025;-69
2023/07/05 05:17:23;;;;;;;6.05;2.83;;;;;;;14.18;100.00;100338.53;5030123;28;20029;-68
2023/07/05 05:19:48;;;;;;;8.55;2.85;;;;;;;14.17;100.00;100330.69;5029941;28;20033;-68
2023/07/05 05:22:14;;;;;;;5.78;3.17;;;;;;;14.25;100.00;100341.06;5029653;28;20029;-68
2023/07/05 05:24:39;;;;;;;7.95;3.17;;;;;;;14.26;100.00;100340.03;5029931;28;20075;-68
2023/07/05 05:27:05;;;;;;;7.18;2.88;;;;;;;14.24;100.00;100326.03;5030133;28;20025;-68
2023/07/05 05:29:30;;;;;;;4.80;2.38;;;;;;;14.24;100.00;100324.16;5029869;28;20463;-68
2023/07/05 05:31:56;;;;;;;9.27;2.80;;;;;;;14.24;100.00;100339.44;5029847;28;20045;-68
2023/07/05 05:34:24;;;;;;;8.88;2.80;;;;;;;14.13;100.00;100327.69;5029706;28;20052;-68
2023/07/05 05:36:49;;;;;;;7.85;3.95;;;;;;;14.23;100.00;100335.16;5029670;28;20037;-68
2023/07/05 05:39:15;;;;;;;9.05;3.60;;;;;;;14.18;100.00;100337.72;5029907;28;20037;-68
2023/07/05 05:41:40;;;;;;;7.40;2.78;;;;;;;14.18;100.00;100343.09;5029717;28;20033;-68
2023/07/05 05:44:06;;;;;;;6.03;2.50;;;;;;;14.16;100.00;100337.13;5011747;28;20239;-68
2023/07/05 05:46:31;;;;;;;8.30;3.28;;;;;;;14.11;100.00;100332.44;5029335;28;20111;-68
2023/07/05 05:48:57;;;;;;;9.75;2.90;;;;;;;14.12;100.00;100327.91;5029676;28;20041;-68
2023/07/05 05:51:23;;;;;;;8.38;3.03;;;;;;;14.07;100.00;100335.81;4995384;28;20393;-68
2023/07/05 05:53:48;;;;;;;7.95;3.10;;;;;;;14.03;100.00;100335.47;5029573;28;20026;-68
2023/07/05 05:56:13;;;;;;;6.82;2.95;;;;;;;14.04;100.00;100339.78;5029465;28;20029;-68
2023/07/05 05:58:39;;;;;;;7.55;2.67;;;;;;;14.01;100.00;100335.69;5029726;28;20107;-69
2023/07/05 06:01:05;;;;;;;7.93;3.20;;;;;;;14.04;100.00;100358.56;5029174;28;20048;-68
2023/07/05 06:03:30;;;;;;;8.38;3.80;;;;;;;14.01;100.00;100357.16;5029294;28;20069;-68
2023/07/05 06:05:56;;;;;;;6.28;2.78;;;;;;;13.98;100.00;100354.13;5029406;28;20125;-68
2023/07/05 06:08:21;;;;;;;4.72;2.70;;;;;;;13.98;100.00;100356.81;5029351;28;20051;-68
2023/07/05 06:10:54;;;;;;;8.98;3.53;;;;;;;13.95;100.00;100360.75;5012698;28;20120;-68
2023/07/05 06:13:20;;;;;;;6.13;3.35;;;;;;;13.92;100.00;100373.81;5033648;28;20033;-68
2023/07/05 06:15:45;;;;;;;6.97;3.53;;;;;;;13.95;100.00;100363.44;5033344;28;20079;-68
2023/07/05 06:18:10;;;;;;;7.45;2.55;;;;;;;14.01;100.00;100377.78;5015852;28;20038;-68
2023/07/05 06:20:36;;;;;;;5.72;2.83;;;;;;;14.07;100.00;100373.38;5033322;28;20495;-68
2023/07/05 06:23:03;;;;;;;8.13;2.78;;;;;;;14.05;100.00;100375.47;5033311;28;20030;-68
2023/07/05 06:25:30;;;;;;;6.43;2.45;;;;;;;14.05;100.00;100378.16;5033480;28;20034;-68
2023/07/05 06:27:55;;;;;;;3.30;2.50;;;;;;;14.10;100.00;100389.00;5033198;28;20095;-68
2023/07/05 06:30:21;;;;;;;6.90;3.85;;;;;;;14.05;100.00;100378.97;5033271;28;20035;-69
2023/07/05 06:32:47;;;;;;;6.15;3.08;;;;;;;13.96;100.00;100389.22;5039240;28;20170;-68
2023/07/05 06:35:12;;;;;;;10.18;3.10;;;;;;;13.98;100.00;100395.16;5032913;28;20124;-68
2023/07/05 06:37:37;;;;;;;6.28;2.40;;;;;;;14.09;100.00;100393.53;5033168;28;20130;-68
2023/07/05 06:40:03;;;;;;;4.55;2.72;;;;;;;14.19;100.00;100396.47;5033108;28;20115;-68
2023/07/05 06:42:28;;;;;;;3.72;2.20;;;;;;;14.32;100.00;100400.81;5041263;28;20044;-69
2023/07/05 06:44:54;;;;;;;4.15;2.08;;;;;;;14.33;100.00;100398.94;5033860;28;20491;-69
2023/07/05 06:47:19;;;;;;;6.38;3.00;;;;;;;14.41;99.58;100399.41;5022480;28;20144;-68
2023/07/05 06:49:44;;;;;;;4.55;2.65;;;;;;;14.54;96.97;100408.28;5034794;28;20127;-68
2023/07/05 06:52:10;;;;;;;6.38;2.50;;;;;;;14.52;95.01;100405.03;5039853;28;20037;-68
2023/07/05 06:54:35;;;;;;;5.90;2.67;;;;;;;14.52;95.36;100423.81;5032622;28;20435;-69
2023/07/05 06:57:00;;;;;;;4.55;2.30;;;;;;;14.57;93.96;100422.09;5032874;28;20037;-69
2023/07/05 06:59:26;;;;;;;5.70;2.88;;;;;;;14.67;93.96;100424.16;5014923;28;20034;-69
2023/07/05 07:01:51;;;;;;;7.28;3.20;;;;;;;14.80;91.22;100432.00;5038729;28;20037;-68
2023/07/05 07:04:17;;;;;;;9.38;4.15;;;;;;;14.82;91.63;100447.84;5041120;28;20491;-69
2023/07/05 07:06:42;;;;;;;7.68;3.13;;;;;;;14.81;90.95;100440.88;5038599;28;20052;-70
2023/07/05 07:09:10;;;;;;;7.18;2.15;;;;;;;14.80;90.73;100458.00;5032488;28;20037;-69
2023/07/05 07:11:36;;;;;;;5.60;2.95;;;;;;;14.78;92.29;100444.84;5032405;28;20025;-69
2023/07/05 07:14:01;;;;;;;5.30;2.38;;;;;;;14.99;92.97;100431.88;5032258;28;20059;-68
2023/07/05 07:16:26;;;;;;;5.07;3.00;;;;;;;15.16;90.80;100448.84;5032191;28;20033;-69
2023/07/05 07:18:52;;;;;;;4.68;2.92;;;;;;;15.18;91.58;100452.13;5032455;28;20021;-69
2023/07/05 07:21:19;;;;;;;8.52;3.55;;;;;;;15.00;90.62;100454.97;5041847;28;20083;-70
2023/07/05 07:23:47;;;;;;;8.60;3.40;;;;;;;14.84;91.54;100468.06;5043813;28;20094;-67
2023/07/05 07:26:16;;;;;;;6.95;2.60;;;;;;;14.85;90.29;100475.03;5042683;28;20028;-68
2023/07/05 07:28:45;;;;;;;3.45;2.17;;;;;;;14.89;93.40;100481.59;5050448;28;20039;-67
2023/07/05 07:31:17;;;;;;;7.70;3.13;;;;;;;15.02;89.87;100477.84;5050900;28;20112;-67
2023/07/05 07:33:44;;;;;;;6.60;2.45;;;;;;;15.16;92.64;100481.09;5051208;28;20021;-68
2023/07/05 07:36:12;;;;;;;5.40;2.05;;;;;;;15.25;89.71;100470.81;5050788;28;20032;-66
2023/07/05 07:38:39;;;;;;;3.80;1.77;;;;;;;15.47;90.40;100504.06;5050753;28;20094;-67
2023/07/05 07:41:14;;;;;;;5.38;2.25;;;;;;;15.44;90.82;100527.91;5050272;28;20124;-67
2023/07/05 07:43:40;;;;;;;4.88;2.35;;;;;;;15.07;94.38;100518.25;5050937;28;20025;-67
2023/07/05 07:46:14;;;;;;;4.65;2.60;;;;;;;14.81;97.62;100526.78;5050684;28;20095;-67
2023/07/05 07:48:41;;;;;;;5.45;3.05;;;;;;;14.60;100.00;100528.16;5050513;28;20040;-67
2023/07/05 07:51:08;;;;;;;4.82;2.35;;;;;;;14.54;100.00;100532.59;5043480;28;20033;-67
2023/07/05 07:53:34;;;;;;;7.93;2.65;;;;;;;14.39;100.00;100535.66;5031563;28;20021;-67
2023/07/05 07:55:59;;;;;;;7.10;3.25;;;;;;;14.31;100.00;100544.03;5031430;28;20452;-66
2023/07/05 07:58:24;;;;;;;4.32;2.85;;;;;;;14.27;100.00;100542.84;5031453;28;20057;-67
2023/07/05 08:00:50;;;;;;;8.25;2.72;;;;;;;14.36;100.00;100548.72;5031285;28;20025;-67
2023/07/05 08:03:15;;;;;;;4.85;2.65;;;;;;;14.51;100.00;100548.28;5050415;28;20090;-67
2023/07/05 08:05:41;;;;;;;6.47;2.50;;;;;;;14.54;100.00;100534.44;5050091;28;20058;-68
2023/07/05 08:08:06;;;;;;;9.95;3.20;;;;;;;14.91;100.00;100545.81;5016033;28;20033;-68
2023/07/05 08:10:31;;;;;;;9.32;3.20;;;;;;;15.11;100.00;100548.94;5050225;28;20392;-67
2023/07/05 08:12:57;;;;;;;4.70;3.10;;;;;;;15.23;99.56;100540.91;5049426;28;20365;-68
2023/07/05 08:15:23;;;;;;;4.97;3.22;;;;;;;15.20;100.00;100552.13;5030365;28;20040;-68
2023/07/05 08:17:49;;;;;;;5.97;3.50;;;;;;;15.60;100.00;100554.03;5031381;28;20033;-68
2023/07/05 08:20:15;;;;;;;6.97;3.70;;;;;;;16.62;96.21;100552.47;5031462;28;20033;-67
2023/07/05 08:22:40;;;;;;;6.80;2.60;;;;;;;16.95;91.28;100570.56;5030797;28;20388;-69
2023/07/05 08:25:06;;;;;;;4.65;2.60;;;;;;;16.38;93.06;100574.16;5031038;28;20022;-67
2023/07/05 08:27:32;;;;;;;8.82;3.63;;;;;;;15.89;94.28;100573.75;5030762;28;20384;-67
2023/07/05 08:29:57;;;;;;;8.23;2.83;;;;;;;15.59;96.87;100568.56;5031163;28;20029;-67
2023/07/05 08:32:22;;;;;;;8.68;3.25;;;;;;;15.56;94.97;100577.91;5030642;28;20033;-66
2023/07/05 08:34:49;;;;;;;6.50;3.00;;;;;;;15.73;94.76;100558.38;5029626;28;20029;-67
2023/07/05 08:37:14;;;;;;;7.07;3.58;;;;;;;15.62;93.08;100583.38;5030814;28;20029;-67
2023/07/05 08:39:40;;;;;;;6.40;3.63;;;;;;;15.56;95.27;100583.28;5030690;28;20034;-66
2023/07/05 08:42:05;;;;;;;8.43;4.03;;;;;;;16.09;92.96;100576.03;5030804;28;20033;-66
2023/07/05 08:44:30;;;;;;;9.90;3.88;;;;;;;17.20;87.91;100599.75;5037377;28;20033;-66
2023/07/05 08:47:07;;;;;;;9.17;4.73;;;;;;;17.74;82.41;100593.75;5049563;28;20516;-67
2023/07/05 08:49:40;;;;;;;7.13;4.60;;;;;;;17.80;82.28;100576.59;5049679;28;20311;-68
2023/07/05 08:52:15;;;;;;;13.27;6.22;;;;;;;17.47;82.91;100601.75;5049459;28;20057;-67
2023/07/05 08:54:42;;;;;;;7.38;5.13;;;;;;;17.00;83.86;100624.53;5035215;28;20006;-74
2023/07/05 08:57:23;;;;;;;10.30;4.00;;;;;;;16.64;86.45;100605.03;5012920;28;20381;-75
2023/07/05 08:59:57;;;;;;;7.27;4.67;;;;;;;16.56;86.49;100634.22;5047998;28;20021;-72
2023/07/05 09:02:23;;;;;;;6.00;3.67;;;;;;;17.84;80.96;100606.56;5049344;28;20274;-73
2023/07/05 09:04:50;;;;;;;8.77;3.63;;;;;;;18.53;77.21;100631.13;5043734;28;21011;-75
2023/07/05 09:07:34;;;;;;;7.70;3.60;;;;;;;18.94;77.84;100650.47;5039384;28;20048;-75
2023/07/05 09:10:42;;;;;;;6.43;3.50;;;;;;;18.67;76.33;100638.81;5031521;28;20072;-77
2023/07/05 09:13:22;;;;;;;12.20;4.35;;;;;;;18.17;77.90;100628.03;5001790;28;20080;-74
2023/07/05 09:16:04;;;;;;;7.22;4.53;;;;;;;17.75;79.84;100646.63;5034891;28;20025;-75
2023/07/05 09:18:32;;;;;;;;;;;;;;;17.69;81.98;100651.16;5038255;28;20036;-74
2023/07/05 09:21:19;;;;;;;6.43;3.85;;;;;;;17.69;80.14;100647.66;5040138;28;20897;-74
2023/07/05 09:23:54;;;;;;;7.57;3.85;;;;;;;17.40;80.56;100650.47;5041083;28;20040;-74
2023/07/05 09:26:32;;;;;;;9.45;3.80;;;;;;;17.55;79.92;100651.75;5033010;28;20025;-74
2023/07/05 09:29:13;;;;;;;7.30;3.35;;;;;;;17.68;79.35;100667.56;5045813;28;20424;-72
2023/07/05 09:31:39;;;;;;;6.90;2.55;;;;;;;17.69;79.35;100661.13;5036827;28;20048;-73
2023/07/05 09:34:17;;;;;;;8.25;3.10;;;;;;;17.61;79.58;100664.25;5021522;28;20026;-75
2023/07/05 09:36:42;;;;;;;6.53;3.25;;;;;;;17.39;80.29;100681.16;5041395;28;20950;-75
2023/07/05 09:39:29;;;;;;;6.55;3.00;;;;;;;17.16;78.70;100705.59;5041631;28;20025;-77
2023/07/05 09:41:58;;;;;;;9.68;3.97;;;;;;;16.77;78.43;100700.06;5042710;28;20025;-77
2023/07/05 09:44:24;;;;;;;6.43;3.15;;;;;;;16.70;78.69;100681.34;5038646;28;20042;-76
2023/07/05 09:46:49;;;;;;;6.13;2.78;;;;;;;17.12;78.61;100701.75;5044878;28;20053;-76
2023/07/05 09:49:16;;;;;;;3.60;2.70;;;;;;;17.41;75.91;100689.03;5038015;28;20469;-76
2023/07/05 09:51:45;;;;;;;6.70;3.08;;;;;;;17.40;75.39;100707.09;5038669;28;20029;-76
2023/07/05 09:54:31;;;;;;;10.63;3.33;;;;;;;17.43;77.94;100720.06;5046289;28;20032;-77
2023/07/05 09:57:04;;;;;;;6.15;2.75;;;;;;;17.35;73.16;100723.19;5035623;28;20469;-77
2023/07/05 09:59:31;;;;;;;9.25;3.35;;;;;;;17.37;73.03;100709.44;5037013;28;20025;-78
2023/07/05 10:02:10;;;;;;;3.17;2.55;;;;;;;17.33;74.08;100729.88;5040405;28;20036;-76
2023/07/05 10:04:43;;;;;;;6.53;2.88;;;;;;;17.26;72.50;100724.63;5037182;28;20488;-77
2023/07/05 10:07:15;;;;;;;9.30;2.63;;;;;;;17.73;73.29;100743.16;5041652;28;20067;-76
2023/07/05 10:09:59;;;;;;;8.77;2.15;;;;;;;18.07;71.30;100732.34;5038958;28;20032;-77
2023/07/05 10:12:32;;;;;;;2.22;1.52;;;;;;;18.32;70.71;100739.97;5038304;28;20654;-77
2023/07/05 10:14:58;;;;;;;3.85;2.42;;;;;;;18.42;68.94;100752.78;5040769;28;20045;-76
2023/07/05 10:17:24;;;;;;;4.65;1.98;;;;;;;18.67;70.13;100754.97;5019156;28;20025;-76
2023/07/05 10:19:51;;;;;;;6.43;1.80;;;;;;;18.62;66.55;100748.44;5026019;28;20115;-76
2023/07/05 10:22:35;;;;;;;8.32;1.90;;;;;;;18.50;65.58;100765.88;5026464;28;20029;-77
2023/07/05 10:25:13;;;;;;;9.55;2.30;;;;;;;18.12;65.24;100781.00;5026991;28;20033;-76
2023/07/05 10:27:43;;;;;;;4.00;1.38;;;;;;;17.90;64.79;100786.38;5027189;28;20037;-75
2023/07/05 10:30:14;;;;;;;10.18;2.75;;;;;;;17.85;65.77;100794.38;5027876;28;20372;-78
2023/07/05 10:32:42;;;;;;;7.70;2.97;;;;;;;17.92;64.30;100786.91;5027782;28;20032;-76
2023/07/05 10:35:26;;;;;;;6.45;1.55;;;;;;;17.99;64.37;100782.19;5027974;28;20124;-77
2023/07/05 10:37:52;;;;;;;6.40;1.55;;;;;;;17.85;62.71;100806.00;5041870;28;20124;-77
2023/07/05 10:40:19;;;;;;;8.15;1.90;;;;;;;17.95;66.54;100803.44;5047195;28;20032;-75
2023/07/05 10:42:49;;;;;;;4.97;1.70;;;;;;;18.28;63.20;100817.13;5047767;28;20384;-76
2023/07/05 10:45:19;;;;;;;4.95;1.80;;;;;;;18.48;63.04;100808.50;5047971;28;20134;-76
2023/07/05 10:47:53;;;;;;;7.03;1.42;;;;;;;18.70;62.67;100809.31;5047891;28;20140;-77
2023/07/05 10:50:39;;;;;;;6.65;1.88;;;;;;;18.94;63.01;100823.44;5047792;28;20625;-76
2023/07/05 10:53:10;;;;;;;3.65;1.80;;;;;;;18.97;59.96;100822.91;5019455;28;20087;-75
2023/07/05 10:55:57;;;;;;;5.67;2.00;;;;;;;18.80;60.51;100825.69;5035957;28;20049;-76
2023/07/05 10:58:40;;;;;;;6.60;1.60;;;;;;;18.60;59.63;100834.34;5042337;28;20025;-76
2023/07/05 11:01:21;;;;;;;5.38;1.90;;;;;;;18.58;63.01;100830.25;5042134;28;20025;-76
2023/07/05 11:04:09;;;;;;;4.22;0.85;;;;;;;18.87;59.33;100836.31;5044201;28;20028;-75
2023/07/05 11:06:36;;;;;;;5.68;1.50;;;;;;;18.99;59.57;100837.00;5048132;28;20081;-74
2023/07/05 11:09:03;;;;;;;9.05;1.20;;;;;;;19.11;60.33;100839.56;5032085;28;20039;-75
2023/07/05 11:11:37;;;;;;;7.53;1.60;;;;;;;19.05;59.19;100837.88;5043597;28;20493;-74
2023/07/05 11:14:03;;;;;;;6.45;1.95;;;;;;;19.08;58.51;100845.47;5037124;28;20020;-76
2023/07/05 11:16:30;;;;;;;7.32;1.38;;;;;;;19.12;58.68;100848.47;5047497;28;20071;-76
2023/07/05 11:19:03;;;;;;;7.50;1.73;;;;;;;19.04;58.11;100852.44;5047003;28;20524;-76
2023/07/05 11:21:39;;;;;;;7.20;2.25;;;;;;;18.88;59.14;100845.22;5036525;28;20025;-76
2023/07/05 11:24:09;;;;;;;9.35;1.85;;;;;;;18.68;59.57;100856.56;5039584;28;20033;-76
2023/07/05 11:26:38;;;;;;;6.55;2.05;;;;;;;18.62;61.15;100867.28;5043144;28;20065;-77